Huidige situatie

Nevelig
Barometer
1014.92 (hPa)
Zicht

5.0 (km)
   Temperatuur
16  °C
Temperatuur
15  °C
Dauwpunt
94  %
Vochtigheid
   Windsnelheid
2  km/h
   Windrichting
Kalm
  Pal Noord
   Vliegveld Data
EHGG
      Locatie Eelde 20  km van:
         Weerstation-Sauwerd
Metar :EHGG 180525Z AUTO VRB01KT 5000 BR NSC 16/15 Q1015 BECMG CAVOK
dinsdag 18 juni 07:25
   Raw Metar Info
Raw METAR is het meest gangbare formaat ter wereld voor de overdracht van waarnemingsweergegevens. Het is zeer gestandaardiseerd door de Internationale Burgerluchtvaartorganisatie (ICAO), waardoor het overal in de wereld kan worden begrepen.
   API Info
Data Provided by
https://www.checkwx.com/weather/EHGG
   © Info
CSS/SVG/PHP scripts were developed by weather34.com for use in the weather34 template © 2015-2019

Guide Info provided by Metar-Wikipedia